Time;durP1;ratioP1;P1;durP2;ratioP2;P2;SDS_P1;SDS_P2;PMS_P1;PMS_P2;Temp;Humidity;BMP_temperature;BMP_pressure;BME280_temperature;BME280_humidity;BME280_pressure;Samples;Min_cycle;Max_cycle;Signal;HPM_P1;HPM_P2
2023/08/10 00:02:06;;;;;;;8.87;8.47;;;;;;;19.43;55.50;92870.41;5089769;28;20224;-74
2023/08/10 00:04:33;;;;;;;8.77;8.33;;;;;;;19.55;54.27;92875.75;5090321;28;20202;-75
2023/08/10 00:06:58;;;;;;;8.27;7.87;;;;;;;19.61;54.57;92871.78;5084556;28;20243;-73
2023/08/10 00:09:24;;;;;;;7.43;7.13;;;;;;;19.61;54.58;92857.78;5070506;28;20194;-72
2023/08/10 00:11:49;;;;;;;7.60;7.20;;;;;;;19.47;55.07;92873.94;5074211;28;20253;-72
2023/08/10 00:14:14;;;;;;;8.02;7.65;;;;;;;19.50;55.55;92872.53;5090306;28;20184;-73
2023/08/10 00:16:40;;;;;;;7.60;7.30;;;;;;;19.53;54.85;92875.31;5084288;28;20244;-72
2023/08/10 00:19:05;;;;;;;7.60;7.27;;;;;;;19.44;55.72;92871.97;5085058;28;20192;-72
2023/08/10 00:21:30;;;;;;;8.10;7.80;;;;;;;19.35;55.63;92875.81;5089483;28;20244;-72
2023/08/10 00:23:56;;;;;;;8.30;7.90;;;;;;;19.36;56.13;92864.91;5089609;28;20210;-72
2023/08/10 00:26:23;;;;;;;8.00;7.60;;;;;;;19.34;56.23;92866.28;5089778;28;20176;-72
2023/08/10 00:28:49;;;;;;;7.87;7.57;;;;;;;19.49;55.74;92858.53;5088996;28;20199;-72
2023/08/10 00:31:14;;;;;;;8.57;8.17;;;;;;;19.40;56.92;92855.19;5089751;28;20218;-73
2023/08/10 00:33:39;;;;;;;8.57;8.13;;;;;;;19.28;58.21;92847.22;5087718;28;20228;-72
2023/08/10 00:36:09;;;;;;;8.10;7.70;;;;;;;19.00;61.09;92835.59;5090098;28;20195;-72
2023/08/10 00:38:38;;;;;;;8.60;8.20;;;;;;;18.95;62.46;92825.19;5089194;28;20224;-72
2023/08/10 00:41:04;;;;;;;7.60;7.30;;;;;;;18.97;61.44;92842.28;5089862;28;20183;-72
2023/08/10 00:43:30;;;;;;;7.87;7.47;;;;;;;18.91;63.33;92834.88;5089211;28;20233;-72
2023/08/10 00:45:57;;;;;;;7.67;7.37;;;;;;;18.95;62.24;92836.56;5089924;28;20177;-71
2023/08/10 00:48:24;;;;;;;8.80;8.40;;;;;;;18.95;62.01;92828.63;5087171;28;20222;-72
2023/08/10 00:50:50;;;;;;;8.17;7.83;;;;;;;18.88;61.52;92817.00;5089874;28;20218;-72
2023/08/10 00:53:17;;;;;;;8.60;8.20;;;;;;;18.88;61.79;92822.28;5089433;28;20235;-72
2023/08/10 00:55:43;;;;;;;7.83;7.43;;;;;;;18.83;61.92;92817.22;5088281;28;20184;-72
2023/08/10 00:58:11;;;;;;;8.60;8.10;;;;;;;18.60;63.58;92823.91;5089163;28;20245;-72
2023/08/10 01:00:37;;;;;;;8.17;7.77;;;;;;;18.83;61.24;92825.16;5088841;28;20700;-72
2023/08/10 01:03:04;;;;;;;8.43;8.03;;;;;;;18.71;62.10;92804.69;5089358;28;20240;-70
2023/08/10 01:05:34;;;;;;;8.20;7.70;;;;;;;18.75;61.36;92815.41;5089599;28;20195;-72
2023/08/10 01:08:10;;;;;;;8.77;8.37;;;;;;;18.60;59.35;92821.28;5100553;28;20256;-72
2023/08/10 01:10:45;;;;;;;8.23;7.90;;;;;;;18.68;59.91;92823.06;5089025;28;20194;-72
2023/08/10 01:13:33;;;;;;;7.40;7.10;;;;;;;18.70;59.55;92826.94;5073752;28;20230;-72
2023/08/10 01:16:04;;;;;;;9.90;9.00;;;;;;;18.86;58.99;92829.78;5062133;28;20201;-71
2023/08/10 01:18:30;;;;;;;8.20;7.80;;;;;;;18.66;60.45;92819.97;5086982;28;20287;-72
2023/08/10 01:20:59;;;;;;;9.13;8.43;;;;;;;18.66;60.86;92817.34;5089107;28;20187;-72
2023/08/10 01:23:55;;;;;;;8.57;8.17;;;;;;;18.56;61.86;92828.28;5084531;28;20800;-72
2023/08/10 01:26:22;;;;;;;8.20;7.80;;;;;;;18.34;62.10;92810.03;5076518;28;20205;-72
2023/08/10 01:28:47;;;;;;;8.40;8.00;;;;;;;18.31;62.65;92829.19;5088586;28;20262;-72
2023/08/10 01:31:14;;;;;;;8.10;7.70;;;;;;;18.08;62.73;92798.84;5089447;28;20226;-72
2023/08/10 01:33:39;;;;;;;8.50;8.10;;;;;;;18.18;64.10;92830.97;5090013;28;20222;-72
2023/08/10 01:36:04;;;;;;;8.90;8.50;;;;;;;17.97;66.04;92829.38;5093446;28;20397;-72
2023/08/10 01:38:30;;;;;;;8.50;8.00;;;;;;;17.77;66.49;92824.78;5093021;28;20241;-72
2023/08/10 01:40:55;;;;;;;8.30;7.70;;;;;;;17.88;65.76;92839.19;5092682;28;20202;-71
2023/08/10 01:43:21;;;;;;;9.10;8.37;;;;;;;17.96;65.71;92844.44;5092922;28;20253;-72
2023/08/10 01:45:51;;;;;;;8.83;8.33;;;;;;;17.99;66.11;92843.03;5092946;28;20176;-72
2023/08/10 01:48:35;;;;;;;9.37;8.87;;;;;;;17.83;66.63;92855.22;5092515;28;20218;-72
2023/08/10 01:51:03;;;;;;;8.60;8.10;;;;;;;17.78;66.33;92858.03;5093259;28;20246;-72
2023/08/10 01:53:31;;;;;;;8.70;8.23;;;;;;;17.83;65.78;92856.00;5090122;28;20229;-72
2023/08/10 01:55:57;;;;;;;8.57;8.07;;;;;;;17.98;65.36;92846.78;5092034;28;20244;-71
2023/08/10 01:58:23;;;;;;;8.70;8.30;;;;;;;17.99;65.06;92848.31;5092376;28;20227;-71
2023/08/10 02:00:49;;;;;;;9.23;8.73;;;;;;;18.06;64.60;92845.94;5092871;28;20246;-74
2023/08/10 02:03:14;;;;;;;8.50;8.10;;;;;;;18.29;63.53;92839.31;5092712;28;20230;-76
2023/08/10 02:05:40;;;;;;;8.83;8.43;;;;;;;18.40;62.58;92837.88;5092726;28;20197;-75
2023/08/10 02:08:07;;;;;;;10.40;9.83;;;;;;;18.40;62.85;92829.94;5091247;28;20238;-75
2023/08/10 02:10:32;;;;;;;9.23;8.67;;;;;;;18.31;63.98;92829.19;5085467;28;20841;-75
2023/08/10 02:12:57;;;;;;;9.53;8.93;;;;;;;18.06;65.06;92819.53;5091283;28;20221;-75
2023/08/10 02:15:23;;;;;;;8.53;8.13;;;;;;;17.86;65.92;92812.31;5092807;28;20170;-75
2023/08/10 02:17:48;;;;;;;7.50;7.20;;;;;;;17.79;66.22;92817.34;5090880;28;20221;-76
2023/08/10 02:20:14;;;;;;;7.87;7.47;;;;;;;17.89;66.74;92827.53;5092756;28;20181;-76
2023/08/10 02:22:50;;;;;;;8.77;8.37;;;;;;;17.79;67.31;92836.56;5092039;28;20224;-76
2023/08/10 02:25:16;;;;;;;8.87;8.47;;;;;;;17.58;69.17;92839.16;5091847;28;20177;-76
2023/08/10 02:27:42;;;;;;;8.87;8.37;;;;;;;17.69;68.00;92838.78;5079450;28;20221;-76
2023/08/10 02:30:09;;;;;;;8.57;8.17;;;;;;;17.54;70.97;92864.63;5070319;28;20191;-76
2023/08/10 02:32:35;;;;;;;8.37;7.87;;;;;;;17.45;70.02;92874.44;5072107;28;20222;-76
2023/08/10 02:35:04;;;;;;;10.40;9.77;;;;;;;17.33;70.04;92869.00;5072377;28;20186;-76
2023/08/10 02:37:30;;;;;;;9.33;8.70;;;;;;;17.42;70.42;92893.50;5085575;28;20225;-76
2023/08/10 02:39:55;;;;;;;8.53;8.10;;;;;;;17.02;70.72;92843.88;5090976;28;20250;-76
2023/08/10 02:42:21;;;;;;;8.20;7.80;;;;;;;17.38;71.29;92907.66;5116210;28;20230;-76
2023/08/10 02:44:49;;;;;;;8.67;8.27;;;;;;;17.19;73.26;92910.59;5071418;28;20190;-75
2023/08/10 02:47:14;;;;;;;8.43;7.97;;;;;;;17.11;75.42;92926.41;5078029;28;20217;-76
2023/08/10 02:49:40;;;;;;;9.00;8.47;;;;;;;16.83;78.11;92935.72;5091209;28;20265;-77
2023/08/10 02:52:05;;;;;;;8.90;8.50;;;;;;;16.77;80.78;92943.00;5091648;28;20315;-77
2023/08/10 02:54:31;;;;;;;9.43;8.97;;;;;;;16.42;84.36;92946.59;5091325;28;20186;-72
2023/08/10 02:56:56;;;;;;;9.10;8.63;;;;;;;16.60;87.06;92961.41;5091164;28;20288;-72
2023/08/10 02:59:21;;;;;;;10.13;9.53;;;;;;;16.32;87.21;92957.41;5092104;28;20270;-73
2023/08/10 03:01:47;;;;;;;8.93;8.40;;;;;;;16.49;88.47;92964.63;5091727;28;20220;-72
2023/08/10 03:04:12;;;;;;;8.93;8.33;;;;;;;16.20;90.80;92966.97;5092173;28;21149;-72
2023/08/10 03:06:39;;;;;;;9.47;8.97;;;;;;;16.33;94.96;92966.09;5091128;28;20181;-73
2023/08/10 03:09:04;;;;;;;10.73;8.73;;;;;;;16.18;94.30;92953.31;5086400;28;20213;-72
2023/08/10 03:11:30;;;;;;;9.40;8.60;;;;;;;16.27;96.95;92973.34;5089879;28;20261;-72
2023/08/10 03:13:56;;;;;;;10.23;9.50;;;;;;;16.16;95.21;92979.19;5091676;28;20260;-72
2023/08/10 03:16:21;;;;;;;9.90;9.30;;;;;;;16.17;98.09;92962.31;5091415;28;20214;-73
2023/08/10 03:18:46;;;;;;;9.03;8.53;;;;;;;16.21;100.00;92956.13;5100167;28;20286;-73
2023/08/10 03:21:12;;;;;;;9.70;9.00;;;;;;;16.40;100.00;92971.69;5104178;28;20178;-72
2023/08/10 03:23:37;;;;;;;10.60;10.00;;;;;;;16.46;100.00;92970.50;5071573;28;20221;-73
2023/08/10 03:26:03;;;;;;;10.07;9.53;;;;;;;16.31;100.00;92971.66;5071060;28;20181;-74
2023/08/10 03:28:28;;;;;;;10.93;9.90;;;;;;;16.27;100.00;92957.53;5070938;28;20216;-71
2023/08/10 03:30:53;;;;;;;9.47;8.77;;;;;;;16.11;100.00;92956.38;5071025;28;20177;-72
2023/08/10 03:33:19;;;;;;;9.37;8.93;;;;;;;16.13;100.00;92950.81;5088132;28;20229;-72
2023/08/10 03:35:44;;;;;;;9.60;9.10;;;;;;;16.08;100.00;92928.03;5091255;28;20168;-72
2023/08/10 03:38:10;;;;;;;9.63;9.00;;;;;;;16.24;100.00;92921.28;5091422;28;20236;-72
2023/08/10 03:40:35;;;;;;;10.03;9.43;;;;;;;16.40;100.00;92942.72;5090934;28;20188;-71
2023/08/10 03:43:01;;;;;;;10.03;9.43;;;;;;;16.38;100.00;92947.50;5076634;28;20213;-72
2023/08/10 03:45:26;;;;;;;9.50;8.70;;;;;;;16.17;100.00;92928.06;5070576;28;20194;-72
2023/08/10 03:47:51;;;;;;;10.73;9.90;;;;;;;16.08;100.00;92943.81;5070806;28;20222;-73
2023/08/10 03:50:17;;;;;;;9.50;9.00;;;;;;;16.10;100.00;92936.41;5069591;28;20178;-72
2023/08/10 03:52:42;;;;;;;10.07;9.47;;;;;;;16.03;100.00;92949.25;5080383;28;20285;-72
2023/08/10 03:55:08;;;;;;;9.43;9.00;;;;;;;16.02;100.00;92955.56;5090408;28;20176;-73
2023/08/10 03:57:33;;;;;;;10.03;9.53;;;;;;;16.00;100.00;92965.63;5089166;28;20220;-72
2023/08/10 03:59:58;;;;;;;11.70;11.00;;;;;;;15.63;100.00;92966.03;5090550;28;20189;-72
2023/08/10 04:02:24;;;;;;;9.40;8.90;;;;;;;15.79;100.00;92983.03;5090945;28;20240;-72
2023/08/10 04:04:50;;;;;;;10.73;10.20;;;;;;;15.90;100.00;92989.59;5090442;28;20181;-72
2023/08/10 04:07:15;;;;;;;10.20;9.70;;;;;;;15.97;100.00;93008.38;5089649;28;20238;-72
2023/08/10 04:09:44;;;;;;;10.20;9.70;;;;;;;15.70;100.00;92990.84;5090422;28;20174;-72
2023/08/10 04:12:10;;;;;;;11.50;10.53;;;;;;;15.63;100.00;93006.31;5090258;28;20231;-73
2023/08/10 04:14:35;;;;;;;10.13;9.63;;;;;;;15.72;100.00;93009.00;5090434;28;20185;-72
2023/08/10 04:17:01;;;;;;;11.03;10.33;;;;;;;15.83;100.00;93010.28;5089754;28;20252;-73
2023/08/10 04:19:27;;;;;;;11.73;11.03;;;;;;;15.86;100.00;92993.91;5090260;28;20199;-72
2023/08/10 04:21:53;;;;;;;12.53;11.73;;;;;;;16.02;100.00;92997.72;5089342;28;20242;-72
2023/08/10 04:24:18;;;;;;;10.13;9.63;;;;;;;16.18;100.00;93001.53;5090448;28;20188;-72
2023/08/10 04:26:45;;;;;;;10.30;9.67;;;;;;;15.84;100.00;92990.81;5092748;28;20234;-72
2023/08/10 04:29:10;;;;;;;11.30;10.37;;;;;;;16.17;100.00;93013.16;5090525;28;20187;-72
2023/08/10 04:31:36;;;;;;;10.77;10.17;;;;;;;16.11;100.00;93014.34;5087503;28;20185;-72
2023/08/10 04:34:01;;;;;;;10.93;10.33;;;;;;;15.99;100.00;93019.38;5070250;28;20182;-72
2023/08/10 04:36:26;;;;;;;10.63;9.90;;;;;;;16.04;100.00;93019.28;5070124;28;20198;-72
2023/08/10 04:38:52;;;;;;;10.93;10.33;;;;;;;15.89;100.00;93040.72;5089891;28;20204;-71
2023/08/10 04:41:17;;;;;;;10.87;10.10;;;;;;;15.88;100.00;93039.16;5089538;28;20189;-71
2023/08/10 04:43:43;;;;;;;11.20;10.50;;;;;;;15.92;100.00;93058.56;5089130;28;20336;-71
2023/08/10 04:46:09;;;;;;;11.53;10.83;;;;;;;15.81;100.00;93065.13;5088837;28;20192;-72
2023/08/10 04:48:34;;;;;;;10.97;10.27;;;;;;;15.76;100.00;93055.50;5091895;28;20229;-72
2023/08/10 04:51:00;;;;;;;11.83;10.73;;;;;;;15.99;100.00;93059.69;5082469;28;20188;-71
2023/08/10 04:53:26;;;;;;;10.20;9.50;;;;;;;16.02;100.00;93055.66;5068209;28;20245;-71
2023/08/10 04:55:52;;;;;;;11.73;10.67;;;;;;;15.84;100.00;93038.19;5066525;28;20212;-72
2023/08/10 04:58:17;;;;;;;11.13;10.43;;;;;;;16.07;100.00;93042.38;5068978;28;20217;-72
2023/08/10 05:00:42;;;;;;;11.40;10.43;;;;;;;16.08;100.00;93036.81;5069675;28;20186;-72
2023/08/10 05:03:08;;;;;;;11.10;10.20;;;;;;;15.95;100.00;93031.63;5084783;28;20223;-71
2023/08/10 05:05:34;;;;;;;10.90;9.97;;;;;;;15.83;100.00;93026.09;5089620;28;20208;-71
2023/08/10 05:08:00;;;;;;;11.60;10.67;;;;;;;15.93;100.00;93036.41;5086088;28;20251;-71
2023/08/10 05:10:25;;;;;;;9.83;9.13;;;;;;;16.03;100.00;93036.16;5081839;28;20193;-70
2023/08/10 05:12:51;;;;;;;10.27;9.57;;;;;;;15.92;100.00;93024.31;5080687;28;20272;-69
2023/08/10 05:15:16;;;;;;;10.07;9.27;;;;;;;16.05;100.00;93033.97;5084879;28;20189;-70
2023/08/10 05:17:41;;;;;;;11.37;10.67;;;;;;;15.98;100.00;93044.94;5081371;28;20281;-69
2023/08/10 05:20:11;;;;;;;10.67;9.97;;;;;;;16.00;100.00;93052.53;5087918;28;20209;-68
2023/08/10 05:22:42;;;;;;;11.93;11.13;;;;;;;15.73;100.00;93044.78;5078616;28;20229;-69
2023/08/10 05:25:11;;;;;;;12.13;11.10;;;;;;;15.81;100.00;93044.81;5080193;28;20279;-69
2023/08/10 05:27:38;;;;;;;10.80;9.90;;;;;;;15.85;100.00;93034.47;5088372;28;20646;-69
2023/08/10 05:30:08;;;;;;;10.33;9.53;;;;;;;15.87;100.00;93032.34;5081796;28;20185;-69
2023/08/10 05:32:36;;;;;;;11.07;10.27;;;;;;;15.90;100.00;93031.72;5074258;28;20304;-69
2023/08/10 05:35:02;;;;;;;10.37;9.77;;;;;;;15.79;100.00;93025.94;5082672;28;20230;-69
2023/08/10 05:37:27;;;;;;;11.97;10.97;;;;;;;15.80;100.00;93016.16;5079671;28;20315;-69
2023/08/10 05:39:53;;;;;;;12.50;11.60;;;;;;;15.80;100.00;93022.22;5081936;28;20193;-69
2023/08/10 05:42:18;;;;;;;13.33;12.07;;;;;;;15.76;100.00;93009.97;5072777;28;20224;-71
2023/08/10 05:44:44;;;;;;;13.50;12.40;;;;;;;15.85;100.00;93023.94;5074043;28;20201;-72
2023/08/10 05:47:09;;;;;;;13.00;11.93;;;;;;;15.90;100.00;93016.72;5076837;28;21222;-73
2023/08/10 05:49:34;;;;;;;12.43;11.33;;;;;;;15.82;100.00;93020.06;5075154;28;20199;-68
2023/08/10 05:52:00;;;;;;;12.13;11.10;;;;;;;15.59;100.00;93018.53;5079159;28;20232;-69
2023/08/10 05:54:25;;;;;;;12.23;11.33;;;;;;;15.70;100.00;93021.69;5084981;28;20193;-69
2023/08/10 05:56:50;;;;;;;10.60;9.83;;;;;;;15.84;100.00;93011.88;5092997;28;20338;-69
2023/08/10 05:59:16;;;;;;;11.47;10.80;;;;;;;15.75;100.00;93011.78;5078388;28;20193;-68
2023/08/10 06:01:43;;;;;;;14.10;12.70;;;;;;;15.84;100.00;92990.81;5083673;28;20220;-69
2023/08/10 06:04:10;;;;;;;13.27;12.07;;;;;;;15.64;100.00;92964.97;5070994;28;20220;-68
2023/08/10 06:06:36;;;;;;;14.60;13.10;;;;;;;15.79;100.00;92946.94;5082128;28;20201;-69
2023/08/10 06:09:01;;;;;;;23.17;12.93;;;;;;;15.76;100.00;92928.34;5074317;28;20184;-70
2023/08/10 06:11:27;;;;;;;10.47;9.50;;;;;;;15.41;100.00;92903.66;5084807;28;20268;-70
2023/08/10 06:13:52;;;;;;;9.90;9.33;;;;;;;14.74;100.00;92940.72;5080350;28;20181;-69
2023/08/10 06:16:17;;;;;;;9.63;8.97;;;;;;;14.77;100.00;92967.16;5086328;28;20236;-68
2023/08/10 06:18:43;;;;;;;9.30;8.90;;;;;;;14.84;100.00;92972.81;5082002;28;20239;-68
2023/08/10 06:21:08;;;;;;;11.20;10.50;;;;;;;14.64;100.00;92981.13;5083218;28;20196;-70
2023/08/10 06:23:33;;;;;;;11.07;10.20;;;;;;;14.99;100.00;92996.16;5084212;28;20282;-69
2023/08/10 06:26:00;;;;;;;11.17;10.33;;;;;;;14.77;100.00;92992.69;5082763;28;20176;-69
2023/08/10 06:28:26;;;;;;;11.17;10.37;;;;;;;14.77;100.00;92996.06;5075512;28;20229;-69
2023/08/10 06:30:51;;;;;;;11.60;10.80;;;;;;;14.90;100.00;93010.28;5079845;28;20188;-68
2023/08/10 06:33:17;;;;;;;12.17;11.33;;;;;;;14.89;100.00;92996.38;5081729;28;20233;-67
2023/08/10 06:35:42;;;;;;;12.00;11.03;;;;;;;14.99;100.00;93019.03;5074834;28;20197;-68
2023/08/10 06:38:07;;;;;;;12.80;11.87;;;;;;;15.02;100.00;93013.19;5077530;28;20315;-68
2023/08/10 06:40:33;;;;;;;10.40;9.70;;;;;;;15.05;100.00;93021.25;5082935;28;20246;-69
2023/08/10 06:42:59;;;;;;;11.97;11.27;;;;;;;15.03;100.00;93022.63;5072704;28;20213;-68
2023/08/10 06:45:24;;;;;;;11.00;10.30;;;;;;;14.98;100.00;93020.88;5074635;28;20193;-71
2023/08/10 06:47:50;;;;;;;10.93;10.33;;;;;;;14.76;100.00;93035.78;5076473;28;20264;-70
2023/08/10 06:50:16;;;;;;;12.13;11.23;;;;;;;14.99;100.00;93037.47;5082092;28;20178;-70
2023/08/10 06:52:41;;;;;;;10.73;9.97;;;;;;;14.98;100.00;93034.03;5077347;28;20288;-70
2023/08/10 06:55:07;;;;;;;11.60;10.70;;;;;;;15.16;100.00;93035.75;5079802;28;20185;-74
2023/08/10 06:57:35;;;;;;;11.87;11.07;;;;;;;15.31;100.00;93045.97;5081250;28;20247;-72
2023/08/10 07:00:02;;;;;;;11.47;10.67;;;;;;;15.38;100.00;93035.03;5073980;28;20196;-71
2023/08/10 07:02:28;;;;;;;13.33;12.43;;;;;;;15.38;100.00;93045.56;5076533;28;20230;-72
2023/08/10 07:04:53;;;;;;;12.03;11.27;;;;;;;15.51;100.00;93044.75;5080436;28;20196;-72
2023/08/10 07:07:19;;;;;;;11.57;10.73;;;;;;;15.79;100.00;93040.94;5081313;28;20225;-72
2023/08/10 07:09:44;;;;;;;11.57;10.93;;;;;;;15.72;100.00;93051.88;5076698;28;20190;-73
2023/08/10 07:12:10;;;;;;;12.30;11.40;;;;;;;15.67;100.00;93052.00;5092063;28;20225;-72
2023/08/10 07:14:35;;;;;;;12.07;11.30;;;;;;;15.50;100.00;93059.00;5058743;28;20427;-71
2023/08/10 07:17:02;;;;;;;11.83;11.03;;;;;;;16.00;100.00;93057.81;5065539;28;21105;-73
2023/08/10 07:19:27;;;;;;;12.40;11.60;;;;;;;15.77;100.00;93043.09;5085764;28;20195;-73
2023/08/10 07:21:55;;;;;;;13.07;12.10;;;;;;;15.86;100.00;93046.56;5072306;28;20229;-73
2023/08/10 07:24:22;;;;;;;13.23;12.07;;;;;;;15.81;100.00;93033.53;5062231;28;20200;-85
2023/08/10 07:26:48;;;;;;;11.87;10.93;;;;;;;16.06;100.00;93060.03;5065756;28;20316;-85
2023/08/10 07:29:13;;;;;;;11.63;10.73;;;;;;;16.03;100.00;93036.16;5060406;28;20205;-84
2023/08/10 07:31:39;;;;;;;12.67;11.87;;;;;;;16.13;100.00;93056.97;5067682;28;20240;-82
2023/08/10 07:34:04;;;;;;;12.17;11.30;;;;;;;16.10;100.00;93062.84;5054548;28;20182;-78
2023/08/10 07:36:29;;;;;;;11.37;10.50;;;;;;;16.15;100.00;93061.94;5063380;28;20197;-77
2023/08/10 07:38:55;;;;;;;11.90;10.80;;;;;;;16.40;100.00;93066.56;5080082;28;20295;-77
2023/08/10 07:41:24;;;;;;;11.80;11.00;;;;;;;16.49;100.00;93068.22;5080909;28;20184;-77
2023/08/10 07:43:49;;;;;;;11.93;11.03;;;;;;;16.57;100.00;93061.41;5084931;28;20185;-78
2023/08/10 07:46:14;;;;;;;11.53;10.57;;;;;;;16.58;100.00;93066.38;5082557;28;20237;-79
2023/08/10 07:48:40;;;;;;;12.20;11.30;;;;;;;16.53;100.00;93050.69;5061412;28;20229;-77
2023/08/10 07:51:06;;;;;;;12.83;11.90;;;;;;;16.65;100.00;93065.97;5067832;28;20189;-80
2023/08/10 07:53:33;;;;;;;13.10;12.10;;;;;;;16.77;100.00;93066.94;5079560;28;20225;-78
2023/08/10 07:55:58;;;;;;;11.93;11.17;;;;;;;16.87;100.00;93066.66;5085766;28;20200;-77
2023/08/10 07:58:23;;;;;;;12.83;11.93;;;;;;;17.19;100.00;93074.22;5081702;28;20217;-76
2023/08/10 08:00:49;;;;;;;12.70;11.90;;;;;;;17.54;100.00;93070.56;5087834;28;20217;-75
2023/08/10 08:03:14;;;;;;;13.37;12.20;;;;;;;17.37;100.00;93059.94;5077004;28;20236;-76
2023/08/10 08:05:40;;;;;;;13.83;12.87;;;;;;;17.57;100.00;93075.22;5078945;28;20190;-70
2023/08/10 08:08:06;;;;;;;13.97;13.00;;;;;;;17.66;100.00;93077.09;5081958;28;20816;-74
2023/08/10 08:10:32;;;;;;;13.00;12.03;;;;;;;17.56;100.00;93084.22;5082733;28;20963;-77
2023/08/10 08:12:57;;;;;;;13.57;12.47;;;;;;;17.82;100.00;93070.28;5078600;28;20273;-76
2023/08/10 08:15:24;;;;;;;13.67;12.67;;;;;;;17.53;100.00;93078.78;5085182;28;20189;-75
2023/08/10 08:18:27;;;;;;;13.67;12.57;;;;;;;17.06;100.00;93076.94;5086907;28;20289;-75
2023/08/10 08:20:53;;;;;;;13.97;12.57;;;;;;;17.23;100.00;93075.13;5079575;28;20205;-77
2023/08/10 08:23:18;;;;;;;14.67;13.37;;;;;;;16.94;100.00;93037.97;5070410;28;20246;-76
2023/08/10 08:25:43;;;;;;;13.27;12.37;;;;;;;17.12;100.00;93079.13;5062003;28;20191;-76
2023/08/10 08:28:09;;;;;;;14.67;13.53;;;;;;;17.60;100.00;93077.25;5069094;28;20221;-75
2023/08/10 08:30:34;;;;;;;15.13;14.03;;;;;;;18.05;97.72;93080.38;5080447;28;20193;-76
2023/08/10 08:33:00;;;;;;;14.97;13.73;;;;;;;17.41;100.00;93076.75;5081433;28;20232;-78
2023/08/10 08:35:26;;;;;;;13.80;12.83;;;;;;;17.94;100.00;93089.69;5074050;28;20189;-77
2023/08/10 08:37:52;;;;;;;13.73;12.73;;;;;;;18.05;100.00;93090.94;5078097;28;20294;-74
2023/08/10 08:40:17;;;;;;;14.77;13.77;;;;;;;18.27;99.15;93088.09;5084432;28;20191;-73
2023/08/10 08:42:47;;;;;;;12.60;11.80;;;;;;;18.73;95.26;93090.03;5077042;28;20227;-72
2023/08/10 08:45:13;;;;;;;15.70;14.57;;;;;;;18.29;96.87;93090.44;5078640;28;20204;-73
2023/08/10 08:47:40;;;;;;;15.10;13.90;;;;;;;18.45;95.78;93084.38;5084093;28;20798;-73
2023/08/10 08:50:06;;;;;;;15.13;13.73;;;;;;;17.07;100.00;93076.66;5084283;28;20261;-73
2023/08/10 08:52:32;;;;;;;17.20;15.73;;;;;;;18.47;99.39;93078.75;5065878;28;20228;-73
2023/08/10 08:54:58;;;;;;;16.10;14.90;;;;;;;19.36;91.90;93082.03;5082269;28;20174;-76
2023/08/10 08:57:23;;;;;;;14.43;13.27;;;;;;;19.13;93.99;93088.63;5084388;28;20250;-75
2023/08/10 08:59:49;;;;;;;15.00;13.70;;;;;;;18.57;97.58;93087.13;5089873;28;20187;-76
2023/08/10 09:02:14;;;;;;;16.23;15.03;;;;;;;19.10;97.01;93083.97;5074371;28;20253;-76
2023/08/10 09:04:40;;;;;;;14.70;13.60;;;;;;;19.12;92.57;93097.69;5081422;28;20205;-76
2023/08/10 09:07:06;;;;;;;12.87;12.03;;;;;;;19.72;89.00;93089.44;5079363;28;20231;-76
2023/08/10 09:09:32;;;;;;;13.53;12.53;;;;;;;18.98;95.61;93091.81;5072207;28;20213;-74
2023/08/10 09:11:58;;;;;;;12.70;11.57;;;;;;;19.72;86.25;93103.44;5086396;28;20238;-72
2023/08/10 09:14:24;;;;;;;11.70;10.80;;;;;;;19.77;82.36;93103.25;5081870;28;20657;-73
2023/08/10 09:16:49;;;;;;;13.17;12.07;;;;;;;19.37;86.35;93104.75;5076625;28;20221;-74
2023/08/10 09:19:17;;;;;;;12.88;11.95;;;;;;;19.30;89.55;93101.81;5120510;28;20183;-74
2023/08/10 09:21:45;;;;;;;13.23;12.33;;;;;;;19.19;89.31;93103.25;5072527;28;20241;-74
2023/08/10 09:24:10;;;;;;;13.17;12.27;;;;;;;18.30;93.98;93098.06;5088471;28;20192;-73
2023/08/10 09:26:40;;;;;;;13.77;12.67;;;;;;;18.61;92.33;93092.56;5090334;28;20170;-74
2023/08/10 09:29:05;;;;;;;13.10;12.23;;;;;;;18.85;89.99;93098.09;5097272;28;20187;-75
2023/08/10 09:31:30;;;;;;;14.00;13.00;;;;;;;19.23;88.45;93098.88;5094886;28;20190;-75
2023/08/10 09:33:58;;;;;;;12.67;11.50;;;;;;;20.02;83.23;93104.94;5089562;28;20170;-75
2023/08/10 09:36:26;;;;;;;13.43;12.53;;;;;;;19.33;87.93;93095.88;5087973;28;20195;-75
2023/08/10 09:38:53;;;;;;;12.33;11.53;;;;;;;18.63;89.83;93093.03;5093639;28;20219;-77
2023/08/10 09:41:20;;;;;;;12.37;11.53;;;;;;;18.42;90.76;93100.88;5093921;28;20187;-75
2023/08/10 09:43:46;;;;;;;12.73;11.93;;;;;;;18.56;87.15;93093.53;5068547;28;20203;-75
2023/08/10 09:46:14;;;;;;;12.67;11.67;;;;;;;19.82;86.31;93096.97;5069018;28;20199;-75
2023/08/10 09:48:50;;;;;;;13.50;12.60;;;;;;;20.27;86.66;93100.53;5068240;28;20271;-74
2023/08/10 09:51:16;;;;;;;12.83;11.87;;;;;;;20.94;84.18;93098.28;5068319;28;20203;-73
2023/08/10 09:53:42;;;;;;;11.70;10.90;;;;;;;21.24;77.39;93090.94;5067956;28;20217;-73
2023/08/10 09:56:08;;;;;;;12.40;11.38;;;;;;;21.20;75.95;93085.50;5072546;28;20180;-74
2023/08/10 09:58:38;;;;;;;13.05;12.15;;;;;;;21.20;80.22;93074.88;5091256;28;20216;-75
2023/08/10 10:01:08;;;;;;;11.80;11.10;;;;;;;20.50;79.86;93083.16;5092519;28;20192;-74
2023/08/10 10:03:34;;;;;;;11.60;10.70;;;;;;;19.79;83.17;93084.38;5092750;28;20231;-74
2023/08/10 10:06:00;;;;;;;11.90;10.82;;;;;;;19.36;82.31;93087.31;5091717;28;20177;-76
2023/08/10 10:08:27;;;;;;;13.40;12.40;;;;;;;18.73;85.72;93090.03;5091401;28;20280;-74
2023/08/10 10:10:57;;;;;;;11.93;11.03;;;;;;;19.88;84.10;93062.00;5092427;28;20190;-73
2023/08/10 10:13:23;;;;;;;10.85;10.05;;;;;;;20.76;82.94;93098.81;5091145;28;20307;-70
2023/08/10 10:15:50;;;;;;;11.85;11.05;;;;;;;21.11;73.63;93094.69;5092729;28;20199;-70
2023/08/10 10:18:17;;;;;;;11.38;10.68;;;;;;;20.62;75.92;93097.22;5092093;28;20283;-70
2023/08/10 10:20:44;;;;;;;11.38;10.57;;;;;;;20.58;77.63;93106.97;5092339;28;20196;-70
2023/08/10 10:23:13;;;;;;;12.77;11.95;;;;;;;20.76;80.05;93096.16;5090792;28;20249;-70
2023/08/10 10:25:39;;;;;;;11.60;10.90;;;;;;;20.77;79.55;93079.13;5092259;28;20247;-70
2023/08/10 10:28:14;;;;;;;11.00;10.40;;;;;;;20.41;76.73;93096.50;5085666;28;20228;-71
2023/08/10 10:30:54;;;;;;;11.98;11.18;;;;;;;20.33;76.98;93078.81;5074179;28;20207;-70
2023/08/10 10:33:19;;;;;;;11.77;10.82;;;;;;;20.14;78.04;93102.38;5092358;28;20222;-69
2023/08/10 10:36:05;;;;;;;12.68;11.63;;;;;;;21.04;76.19;93105.09;5092371;28;20215;-70
2023/08/10 10:38:30;;;;;;;12.55;11.35;;;;;;;20.54;79.15;93100.78;5085110;28;20244;-70
2023/08/10 10:41:07;;;;;;;11.48;10.85;;;;;;;20.71;77.35;93089.19;5092119;28;20183;-70
2023/08/10 10:43:33;;;;;;;11.27;10.57;;;;;;;21.20;72.29;93098.03;5104130;28;20251;-71
2023/08/10 10:45:58;;;;;;;11.73;10.98;;;;;;;19.78;79.70;93088.88;5079527;28;20188;-71
2023/08/10 10:48:34;;;;;;;12.43;11.18;;;;;;;19.86;79.00;93085.41;5104181;28;20240;-70
2023/08/10 10:51:03;;;;;;;12.38;11.27;;;;;;;20.13;76.43;93092.88;5090691;28;20207;-70
2023/08/10 10:53:28;;;;;;;12.13;11.32;;;;;;;20.52;75.50;93087.03;5091610;28;20252;-71
2023/08/10 10:55:53;;;;;;;12.23;11.27;;;;;;;20.70;73.54;93085.75;5092012;28;20191;-71
2023/08/10 10:58:19;;;;;;;12.73;11.73;;;;;;;20.75;77.44;93073.41;5103426;28;20220;-70
2023/08/10 11:00:45;;;;;;;11.50;10.77;;;;;;;19.57;80.34;93089.97;5092029;28;20246;-71
2023/08/10 11:03:13;;;;;;;13.02;12.07;;;;;;;20.42;77.66;93090.09;5091680;28;20238;-71
2023/08/10 11:05:39;;;;;;;10.98;10.27;;;;;;;21.11;71.08;93092.03;5091012;28;20182;-70
2023/08/10 11:08:06;;;;;;;11.65;10.75;;;;;;;20.96;73.14;93080.19;5091093;28;20309;-70
2023/08/10 11:10:37;;;;;;;11.95;11.13;;;;;;;20.63;73.82;93093.50;5100528;28;20184;-71
2023/08/10 11:13:07;;;;;;;11.48;10.70;;;;;;;21.33;74.26;93087.06;5094091;28;20259;-70
2023/08/10 11:15:34;;;;;;;12.07;11.13;;;;;;;21.47;73.73;93084.84;5091636;28;20170;-70
2023/08/10 11:17:59;;;;;;;11.10;10.30;;;;;;;21.70;70.38;93087.78;5090963;28;20221;-70